Time;durP1;ratioP1;P1;durP2;ratioP2;P2;SDS_P1;SDS_P2;PMS_P1;PMS_P2;Temp;Humidity;BMP_temperature;BMP_pressure;BME280_temperature;BME280_humidity;BME280_pressure;Samples;Min_cycle;Max_cycle;Signal;HPM_P1;HPM_P2
2023/02/27 00:00:17;;;;;;;19.03;17.50;;;-0.50;99.90;;;;;;5058033;28;20863;-68
2023/02/27 00:02:46;;;;;;;18.30;17.20;;;-0.60;99.90;;;;;;5057001;28;20463;-69
2023/02/27 00:05:14;;;;;;;19.47;18.23;;;-0.60;99.90;;;;;;5053306;28;20479;-69
2023/02/27 00:07:41;;;;;;;19.37;18.10;;;-0.60;99.90;;;;;;5062937;28;20500;-69
2023/02/27 00:10:10;;;;;;;19.07;17.50;;;-0.50;99.90;;;;;;5061360;28;20482;-68
2023/02/27 00:12:37;;;;;;;18.63;17.50;;;-0.50;99.90;;;;;;5051679;28;21001;-71
2023/02/27 00:15:06;;;;;;;19.13;17.57;;;-0.40;99.90;;;;;;5049993;28;20813;-69
2023/02/27 00:17:35;;;;;;;17.97;16.60;;;-0.20;99.90;;;;;;5057978;28;20458;-70
2023/02/27 00:20:03;;;;;;;19.43;18.10;;;-0.20;99.90;;;;;;5058376;28;20468;-70
2023/02/27 00:22:29;;;;;;;19.67;18.20;;;-0.20;99.90;;;;;;5055205;28;20460;-70
2023/02/27 00:24:56;;;;;;;19.53;18.20;;;-0.10;99.90;;;;;;5060521;28;20528;-67
2023/02/27 00:27:22;;;;;;;18.10;17.00;;;-0.20;99.90;;;;;;5047474;28;20991;-71
2023/02/27 00:29:49;;;;;;;18.50;17.27;;;-0.20;99.90;;;;;;5056840;28;20519;-68
2023/02/27 00:32:16;;;;;;;17.47;16.37;;;-0.20;99.90;;;;;;5060989;28;20474;-71
2023/02/27 00:34:45;;;;;;;18.07;16.73;;;-0.20;99.90;;;;;;5061981;28;20968;-71
2023/02/27 00:37:11;;;;;;;18.67;16.90;;;-0.20;99.90;;;;;;5059683;28;20463;-71
2023/02/27 00:39:38;;;;;;;17.60;16.47;;;-0.20;99.90;;;;;;5054627;28;20466;-71
2023/02/27 00:42:06;;;;;;;17.63;16.47;;;-0.30;99.90;;;;;;5055782;28;21019;-69
2023/02/27 00:44:32;;;;;;;17.97;16.87;;;-0.30;99.90;;;;;;5050593;28;20479;-69
2023/02/27 00:46:59;;;;;;;19.90;17.93;;;-0.30;99.90;;;;;;5064466;28;20480;-72
2023/02/27 00:49:26;;;;;;;18.03;16.73;;;-0.40;99.90;;;;;;5059469;28;20467;-70
2023/02/27 00:51:55;;;;;;;18.17;16.83;;;-0.50;99.90;;;;;;5058491;28;20907;-68
2023/02/27 00:54:22;;;;;;;18.17;16.87;;;-0.50;99.90;;;;;;5057849;28;20835;-70
2023/02/27 00:56:49;;;;;;;19.20;17.70;;;-0.50;99.90;;;;;;5056345;28;20456;-71
2023/02/27 00:59:16;;;;;;;18.63;17.33;;;-0.50;99.90;;;;;;5059647;28;20462;-73
2023/02/27 01:01:43;;;;;;;18.90;17.20;;;-0.50;99.90;;;;;;5064687;28;20497;-70
2023/02/27 01:04:10;;;;;;;17.43;16.13;;;-0.50;99.90;;;;;;5057641;28;20990;-69
2023/02/27 01:06:37;;;;;;;18.23;17.13;;;-0.50;99.90;;;;;;5059634;28;20470;-70
2023/02/27 01:09:05;;;;;;;17.13;16.00;;;-0.50;99.90;;;;;;5058017;28;20932;-70
2023/02/27 01:11:32;;;;;;;17.13;16.23;;;-0.50;99.90;;;;;;5056364;28;21087;-70
2023/02/27 01:13:59;;;;;;;17.53;16.43;;;-0.50;99.90;;;;;;5055683;28;20486;-72
2023/02/27 01:16:26;;;;;;;17.80;16.70;;;-0.50;99.90;;;;;;5053412;28;20475;-71
2023/02/27 01:18:52;;;;;;;17.80;16.50;;;-0.50;99.90;;;;;;5051105;28;20984;-70
2023/02/27 01:21:20;;;;;;;17.17;15.97;;;-0.50;99.90;;;;;;5053140;28;20468;-67
2023/02/27 01:23:47;;;;;;;16.90;15.83;;;-0.50;99.90;;;;;;5059514;28;20468;-68
2023/02/27 01:26:16;;;;;;;18.20;16.63;;;-0.50;99.90;;;;;;5060693;28;21086;-68
2023/02/27 01:28:42;;;;;;;18.73;17.40;;;-0.60;99.90;;;;;;5058210;28;20493;-70
2023/02/27 01:31:09;;;;;;;16.90;15.70;;;-0.60;99.90;;;;;;5049149;28;20488;-68
2023/02/27 01:33:36;;;;;;;17.77;16.57;;;-0.60;99.90;;;;;;5056566;28;21006;-70
2023/02/27 01:36:03;;;;;;;17.33;16.10;;;-0.60;99.90;;;;;;5051637;28;20512;-72
2023/02/27 01:38:30;;;;;;;16.80;15.50;;;-0.60;99.90;;;;;;5066936;28;21124;-71
2023/02/27 01:40:59;;;;;;;16.53;15.60;;;-0.60;99.90;;;;;;5063709;28;20473;-69
2023/02/27 01:43:27;;;;;;;18.43;17.23;;;-0.60;99.90;;;;;;5059710;28;20595;-72
2023/02/27 01:45:55;;;;;;;18.17;16.40;;;-0.70;99.90;;;;;;5059431;28;20475;-71
2023/02/27 01:48:38;;;;;;;17.47;16.37;;;-0.70;99.90;;;;;;5056181;28;20466;-70
2023/02/27 01:51:11;;;;;;;17.70;16.23;;;-0.70;99.90;;;;;;5049905;28;20489;-68
2023/02/27 01:53:40;;;;;;;18.93;17.03;;;-0.80;99.90;;;;;;5055065;28;20917;-70
2023/02/27 01:56:11;;;;;;;17.57;16.50;;;-0.80;99.90;;;;;;5057814;28;20468;-68
2023/02/27 01:58:40;;;;;;;16.40;15.40;;;-0.90;99.90;;;;;;5059385;28;20458;-71
2023/02/27 02:01:07;;;;;;;18.87;17.57;;;-0.90;99.90;;;;;;5060465;28;20463;-72
2023/02/27 02:03:39;;;;;;;17.90;16.40;;;-1.00;99.90;;;;;;5055509;28;20537;-70
2023/02/27 02:06:06;;;;;;;17.30;16.20;;;-1.10;99.90;;;;;;5053645;28;20456;-70
2023/02/27 02:08:38;;;;;;;17.50;16.30;;;-1.10;99.90;;;;;;5053268;28;20477;-68
2023/02/27 02:11:06;;;;;;;18.03;16.80;;;-1.20;99.90;;;;;;5051489;28;20491;-71
2023/02/27 02:13:33;;;;;;;17.90;16.67;;;-1.20;99.90;;;;;;5059059;28;20829;-72
2023/02/27 02:16:21;;;;;;;17.50;16.30;;;-1.20;99.90;;;;;;5067469;28;20462;-72
2023/02/27 02:18:56;;;;;;;18.67;17.10;;;-1.20;99.90;;;;;;5058772;28;20468;-70
2023/02/27 02:21:59;;;;;;;18.27;17.07;;;-1.30;99.90;;;;;;5055853;28;20474;-70
2023/02/27 02:25:01;;;;;;;16.87;15.50;;;-1.40;99.90;;;;;;5052821;28;20472;-69
2023/02/27 02:27:39;;;;;;;17.53;16.17;;;-1.50;99.90;;;;;;5050643;28;20859;-72
2023/02/27 02:30:45;;;;;;;17.27;16.10;;;-1.50;99.90;;;;;;5058287;28;20877;-71
2023/02/27 02:34:00;;;;;;;16.70;15.70;;;-1.50;99.90;;;;;;5039249;28;20463;-70
2023/02/27 02:37:04;;;;;;;17.27;16.20;;;-1.60;99.90;;;;;;4993002;28;20956;-72
2023/02/27 02:39:52;;;;;;;18.27;16.97;;;-1.60;99.90;;;;;;5052856;28;20516;-71
2023/02/27 02:42:23;;;;;;;17.10;15.80;;;-1.50;99.90;;;;;;5052356;28;20497;-71
2023/02/27 02:45:10;;;;;;;17.80;16.40;;;-1.50;99.90;;;;;;5055247;28;20462;-71
2023/02/27 02:47:50;;;;;;;16.73;15.40;;;-1.50;99.90;;;;;;5055087;28;20460;-72
2023/02/27 02:50:26;;;;;;;17.37;15.97;;;-1.50;99.90;;;;;;5046998;28;20456;-71
2023/02/27 02:53:03;;;;;;;17.50;16.17;;;-1.60;99.90;;;;;;5055224;28;20917;-70
2023/02/27 02:55:37;;;;;;;16.93;15.83;;;-1.60;99.90;;;;;;5050447;28;20466;-72
2023/02/27 02:58:10;;;;;;;16.90;15.80;;;-1.60;99.90;;;;;;5052674;28;20474;-72
2023/02/27 03:00:40;;;;;;;15.83;14.83;;;-1.60;99.90;;;;;;5055389;28;20470;-72
2023/02/27 03:03:12;;;;;;;16.17;15.17;;;-1.60;99.90;;;;;;5052829;28;20543;-72
2023/02/27 03:05:46;;;;;;;16.57;15.47;;;-1.60;99.90;;;;;;5054293;28;20503;-72
2023/02/27 03:08:17;;;;;;;15.07;13.80;;;-1.60;99.90;;;;;;5049231;28;20471;-71
2023/02/27 03:10:49;;;;;;;16.03;14.83;;;-1.60;99.90;;;;;;5056166;28;20516;-70
2023/02/27 03:13:22;;;;;;;16.33;14.60;;;-1.60;99.90;;;;;;5058763;28;21071;-69
2023/02/27 03:15:55;;;;;;;16.10;15.00;;;-1.60;99.90;;;;;;5065043;28;20963;-70
2023/02/27 03:18:25;;;;;;;16.50;15.47;;;-1.60;99.90;;;;;;5055310;28;20461;-70
2023/02/27 03:20:55;;;;;;;16.27;15.17;;;-1.60;99.90;;;;;;5057066;28;20467;-71
2023/02/27 03:23:26;;;;;;;15.80;14.80;;;-1.60;99.90;;;;;;5056552;28;20702;-72
2023/02/27 03:25:56;;;;;;;16.00;14.57;;;-1.60;99.90;;;;;;5055850;28;20458;-72
2023/02/27 03:28:26;;;;;;;17.97;15.43;;;-1.70;99.90;;;;;;5059871;28;20466;-72
2023/02/27 03:30:59;;;;;;;16.00;14.90;;;-1.70;99.90;;;;;;5054021;28;20502;-72
2023/02/27 03:33:31;;;;;;;16.63;15.33;;;-1.60;99.90;;;;;;5055068;28;20469;-69
2023/02/27 03:36:02;;;;;;;16.77;15.50;;;-1.70;99.90;;;;;;5053320;28;20467;-71
2023/02/27 03:38:35;;;;;;;15.93;15.03;;;-1.70;99.90;;;;;;5059879;28;20516;-71
2023/02/27 03:41:14;;;;;;;17.03;15.83;;;-1.70;99.90;;;;;;5055396;28;20456;-68
2023/02/27 03:43:48;;;;;;;16.80;15.60;;;-1.70;99.90;;;;;;5056464;28;20468;-72
2023/02/27 03:46:17;;;;;;;15.93;14.73;;;-1.70;99.90;;;;;;5055806;28;20463;-70
2023/02/27 03:48:44;;;;;;;17.13;15.67;;;-1.70;99.90;;;;;;5052793;28;20472;-70
2023/02/27 03:51:13;;;;;;;16.50;15.30;;;-1.70;99.90;;;;;;5050473;28;20494;-69
2023/02/27 03:53:47;;;;;;;15.90;14.87;;;-1.70;99.90;;;;;;5062383;28;20473;-71
2023/02/27 03:56:21;;;;;;;16.77;15.77;;;-1.70;99.90;;;;;;5050261;28;20861;-72
2023/02/27 03:58:49;;;;;;;17.50;16.20;;;-1.70;99.90;;;;;;5058148;28;20464;-71
2023/02/27 04:01:17;;;;;;;16.53;15.10;;;-1.80;99.90;;;;;;5058881;28;20489;-71
2023/02/27 04:03:49;;;;;;;15.90;14.40;;;-1.90;99.90;;;;;;5056334;28;20819;-70
2023/02/27 04:09:04;;;;;;;22.00;14.67;;;-1.90;99.90;;;;;;5022629;28;20458;-69
2023/02/27 04:11:42;;;;;;;14.87;13.90;;;-1.90;99.90;;;;;;5057446;28;20490;-69
2023/02/27 04:14:26;;;;;;;16.53;15.20;;;-1.90;99.90;;;;;;5055325;28;20924;-70
2023/02/27 04:17:13;;;;;;;16.60;15.50;;;-1.90;99.90;;;;;;5055866;28;20465;-69
2023/02/27 04:19:55;;;;;;;16.20;15.10;;;-2.00;99.90;;;;;;5057997;28;20474;-70
2023/02/27 04:22:32;;;;;;;16.23;14.93;;;-2.00;99.90;;;;;;5059580;28;20466;-71
2023/02/27 04:25:12;;;;;;;16.27;14.87;;;-2.00;99.90;;;;;;5057641;28;20463;-70
2023/02/27 04:27:49;;;;;;;16.13;14.93;;;-2.00;99.90;;;;;;5055909;28;20468;-72
2023/02/27 04:30:25;;;;;;;16.23;15.10;;;-2.00;99.90;;;;;;5054307;28;20478;-71
2023/02/27 04:32:56;;;;;;;16.80;15.23;;;-2.00;99.90;;;;;;5061660;28;20499;-71
2023/02/27 04:35:28;;;;;;;16.70;15.37;;;-2.10;99.90;;;;;;5056446;28;20482;-71
2023/02/27 04:38:00;;;;;;;17.07;15.87;;;-2.10;99.90;;;;;;5059097;28;20466;-70
2023/02/27 04:40:33;;;;;;;15.90;14.70;;;-2.20;99.90;;;;;;5055787;28;20478;-71
2023/02/27 04:43:03;;;;;;;17.17;15.87;;;-2.20;99.90;;;;;;5054273;28;20578;-70
2023/02/27 04:45:34;;;;;;;16.27;15.00;;;-2.20;99.90;;;;;;5053646;28;20464;-69
2023/02/27 04:48:05;;;;;;;16.87;15.50;;;-2.20;99.90;;;;;;5059481;28;20468;-69
2023/02/27 04:50:37;;;;;;;17.40;15.80;;;-2.20;99.90;;;;;;5057749;28;20470;-70
2023/02/27 04:53:09;;;;;;;16.53;15.13;;;-2.20;99.90;;;;;;5055834;28;20837;-70
2023/02/27 04:55:42;;;;;;;17.27;15.70;;;-2.20;99.90;;;;;;5049095;28;20466;-72
2023/02/27 04:58:14;;;;;;;17.87;16.43;;;-2.30;99.90;;;;;;5058423;28;20458;-72
2023/02/27 05:00:44;;;;;;;16.60;15.40;;;-2.30;99.90;;;;;;5058681;28;20476;-72
2023/02/27 05:03:16;;;;;;;18.37;16.60;;;-2.20;99.90;;;;;;5057224;28;20466;-71
2023/02/27 05:05:46;;;;;;;16.33;15.20;;;-2.30;99.90;;;;;;5049156;28;20544;-70
2023/02/27 05:08:19;;;;;;;17.70;16.20;;;-2.30;99.90;;;;;;5059767;28;20468;-69
2023/02/27 05:10:52;;;;;;;17.83;16.53;;;-2.30;99.90;;;;;;5057831;28;20468;-72
2023/02/27 05:13:25;;;;;;;17.80;16.50;;;-2.30;99.90;;;;;;5050906;28;20476;-74
2023/02/27 05:15:56;;;;;;;18.30;16.70;;;-2.40;99.90;;;;;;5063200;28;20977;-71
2023/02/27 05:18:24;;;;;;;18.50;16.77;;;-2.40;99.90;;;;;;5059638;28;20459;-71
2023/02/27 05:21:01;;;;;;;16.57;15.30;;;-2.50;99.90;;;;;;5057762;28;20466;-71
2023/02/27 05:23:36;;;;;;;16.57;15.17;;;-2.50;99.90;;;;;;5050453;28;20490;-69
2023/02/27 05:26:13;;;;;;;16.87;15.47;;;-2.50;99.90;;;;;;5056765;28;20476;-72
2023/02/27 05:28:50;;;;;;;17.33;16.10;;;-2.50;99.90;;;;;;5059202;28;20463;-71
2023/02/27 05:31:23;;;;;;;17.07;15.47;;;-2.50;99.90;;;;;;5053947;28;20488;-70
2023/02/27 05:33:56;;;;;;;17.63;16.37;;;-2.50;99.90;;;;;;5061204;28;20539;-70
2023/02/27 05:36:31;;;;;;;17.80;15.80;;;-2.50;99.90;;;;;;5057589;28;20468;-70
2023/02/27 05:39:01;;;;;;;17.63;16.37;;;-2.50;99.90;;;;;;5056210;28;20552;-70
2023/02/27 05:41:32;;;;;;;18.10;16.70;;;-2.50;99.90;;;;;;5056315;28;20954;-71
2023/02/27 05:44:06;;;;;;;18.90;17.30;;;-2.50;99.90;;;;;;5056092;28;20469;-72
2023/02/27 05:46:37;;;;;;;18.10;16.30;;;-2.50;99.90;;;;;;5051079;28;20466;-70
2023/02/27 05:49:10;;;;;;;17.10;15.90;;;-2.60;99.90;;;;;;5058993;28;20455;-71
2023/02/27 05:51:39;;;;;;;17.23;15.87;;;-2.60;99.90;;;;;;5061375;28;20489;-71
2023/02/27 05:54:11;;;;;;;19.07;17.33;;;-2.60;99.90;;;;;;5058811;28;20950;-72
2023/02/27 05:56:39;;;;;;;17.63;16.30;;;-2.60;99.90;;;;;;5058214;28;20469;-70
2023/02/27 05:59:13;;;;;;;23.93;16.73;;;-2.60;99.90;;;;;;5057129;28;21017;-70
2023/02/27 06:01:40;;;;;;;18.57;16.97;;;-2.60;99.90;;;;;;5062996;28;20720;-71
2023/02/27 06:04:07;;;;;;;16.77;15.30;;;-2.70;99.90;;;;;;5056202;28;20505;-70
2023/02/27 06:06:36;;;;;;;17.07;15.83;;;-2.70;99.90;;;;;;5055309;28;20466;-71
2023/02/27 06:09:04;;;;;;;17.97;16.67;;;-2.70;99.90;;;;;;5056208;28;20576;-70
2023/02/27 06:11:31;;;;;;;17.00;15.70;;;-2.70;99.90;;;;;;5056767;28;20848;-70
2023/02/27 06:13:58;;;;;;;17.67;16.10;;;-2.80;99.90;;;;;;5054444;28;20534;-72
2023/02/27 06:16:26;;;;;;;16.30;15.07;;;-2.80;99.90;;;;;;5056200;28;20471;-72
2023/02/27 06:18:54;;;;;;;17.70;16.27;;;-2.70;99.90;;;;;;5058102;28;20467;-70
2023/02/27 06:21:21;;;;;;;18.37;16.87;;;-2.70;99.90;;;;;;5053595;28;20711;-72
2023/02/27 06:23:48;;;;;;;18.83;17.20;;;-2.80;99.90;;;;;;5053214;28;20961;-72
2023/02/27 06:26:15;;;;;;;18.07;16.47;;;-2.80;99.90;;;;;;5053741;28;20462;-70
2023/02/27 06:28:42;;;;;;;19.13;17.33;;;-2.70;99.90;;;;;;5056442;28;20469;-71
2023/02/27 06:31:08;;;;;;;17.27;15.77;;;-2.70;99.90;;;;;;5057273;28;20473;-70
2023/02/27 06:33:37;;;;;;;17.27;16.00;;;-2.70;99.90;;;;;;5053095;28;20495;-72
2023/02/27 06:36:04;;;;;;;17.77;16.27;;;-2.60;99.90;;;;;;5050198;28;20451;-69
2023/02/27 06:38:31;;;;;;;18.23;16.83;;;-2.50;99.90;;;;;;5053841;28;20967;-72
2023/02/27 06:40:58;;;;;;;21.93;17.77;;;-2.50;99.90;;;;;;5054440;28;20487;-69
2023/02/27 06:43:25;;;;;;;18.40;16.67;;;-2.40;99.90;;;;;;5054308;28;20458;-72
2023/02/27 06:45:54;;;;;;;18.30;16.47;;;-2.40;99.90;;;;;;5055517;28;20460;-70
2023/02/27 06:48:21;;;;;;;20.17;17.17;;;-2.40;99.90;;;;;;5060581;28;20459;-70
2023/02/27 06:50:53;;;;;;;18.40;16.67;;;-2.30;99.90;;;;;;5054237;28;20469;-71
2023/02/27 06:53:20;;;;;;;17.47;15.90;;;-2.20;99.90;;;;;;5058268;28;20503;-70
2023/02/27 06:55:46;;;;;;;19.47;17.77;;;-2.20;99.90;;;;;;5049718;28;21008;-71
2023/02/27 06:58:13;;;;;;;18.83;16.83;;;-2.10;99.90;;;;;;5048650;28;20470;-71
2023/02/27 07:00:40;;;;;;;17.70;16.13;;;-2.00;99.90;;;;;;5055938;28;20463;-72
2023/02/27 07:03:07;;;;;;;18.70;17.03;;;-2.00;99.90;;;;;;5059285;28;20467;-72
2023/02/27 07:05:34;;;;;;;17.10;15.80;;;-1.90;99.90;;;;;;5053942;28;20921;-70
2023/02/27 07:08:03;;;;;;;17.63;16.23;;;-1.90;99.90;;;;;;5056996;28;20470;-70
2023/02/27 07:10:30;;;;;;;19.03;16.60;;;-1.80;99.90;;;;;;5054149;28;20465;-72
2023/02/27 07:12:58;;;;;;;19.10;17.13;;;-1.80;99.90;;;;;;5052564;28;20494;-69
2023/02/27 07:15:25;;;;;;;18.37;16.87;;;-1.70;99.90;;;;;;5051653;28;20473;-72
2023/02/27 07:17:53;;;;;;;19.07;17.17;;;-1.70;99.90;;;;;;5060363;28;20463;-73
2023/02/27 07:20:20;;;;;;;17.07;15.73;;;-1.60;99.90;;;;;;5048724;28;20459;-69
2023/02/27 07:22:47;;;;;;;18.23;16.67;;;-1.60;99.90;;;;;;5052237;28;20469;-72
2023/02/27 07:25:15;;;;;;;18.87;16.90;;;-1.50;99.90;;;;;;5049762;28;20464;-70
2023/02/27 07:27:44;;;;;;;19.47;17.70;;;-1.50;99.90;;;;;;5051897;28;21066;-73
2023/02/27 07:30:12;;;;;;;17.53;16.03;;;-1.40;99.90;;;;;;5056419;28;21091;-70
2023/02/27 07:32:39;;;;;;;17.70;16.43;;;-1.30;99.90;;;;;;5054733;28;20499;-71
2023/02/27 07:35:07;;;;;;;18.23;16.73;;;-1.20;99.90;;;;;;5046635;28;21040;-72
2023/02/27 07:37:34;;;;;;;17.80;16.40;;;-1.20;99.90;;;;;;5048660;28;20619;-71
2023/02/27 07:40:01;;;;;;;19.93;18.33;;;-1.10;99.90;;;;;;5055805;28;20834;-73
2023/02/27 07:42:29;;;;;;;19.77;17.80;;;-1.10;99.90;;;;;;5056827;28;20515;-72
2023/02/27 07:44:57;;;;;;;23.03;17.43;;;-1.00;99.90;;;;;;5063941;28;20858;-73
2023/02/27 07:47:24;;;;;;;18.93;17.63;;;-0.90;99.90;;;;;;5054245;28;20476;-71
2023/02/27 07:49:51;;;;;;;18.60;16.90;;;-0.80;99.90;;;;;;5052258;28;20468;-69
2023/02/27 07:52:18;;;;;;;19.90;18.20;;;-0.80;99.90;;;;;;5056890;28;20697;-70
2023/02/27 07:54:44;;;;;;;19.40;17.80;;;-0.70;99.90;;;;;;5059550;28;20463;-70
2023/02/27 07:57:12;;;;;;;19.47;17.57;;;-0.70;99.90;;;;;;5060896;28;20461;-72
2023/02/27 07:59:40;;;;;;;19.77;17.87;;;-0.60;99.90;;;;;;5056164;28;20952;-71
2023/02/27 08:02:07;;;;;;;19.60;17.80;;;-0.50;99.90;;;;;;5047586;28;20520;-71
2023/02/27 08:04:34;;;;;;;18.97;17.33;;;-0.50;99.90;;;;;;5051769;28;20468;-71
2023/02/27 08:07:01;;;;;;;20.63;18.87;;;-0.50;99.90;;;;;;5058628;28;20460;-69
2023/02/27 08:09:29;;;;;;;20.07;18.20;;;-0.40;99.90;;;;;;5057851;28;20475;-70
2023/02/27 08:11:56;;;;;;;20.50;18.60;;;-0.40;99.90;;;;;;5063751;28;20887;-72
2023/02/27 08:14:23;;;;;;;20.63;18.63;;;-0.30;99.90;;;;;;5049413;28;20467;-72
2023/02/27 08:16:51;;;;;;;20.30;18.60;;;-0.30;99.90;;;;;;5056377;28;20708;-71
2023/02/27 08:19:19;;;;;;;20.67;19.07;;;-0.20;99.90;;;;;;5061144;28;20473;-73
2023/02/27 08:21:46;;;;;;;21.93;20.10;;;-0.20;99.90;;;;;;5059996;28;20699;-70
2023/02/27 08:24:13;;;;;;;21.60;19.43;;;-0.10;99.90;;;;;;5058136;28;20964;-71
2023/02/27 08:26:40;;;;;;;21.00;19.50;;;0.00;99.90;;;;;;5058098;28;20461;-70
2023/02/27 08:29:07;;;;;;;20.70;19.13;;;0.00;99.90;;;;;;5056554;28;21028;-72
2023/02/27 08:31:35;;;;;;;20.00;18.37;;;0.10;99.90;;;;;;5059626;28;20554;-69
2023/02/27 08:34:04;;;;;;;22.43;20.37;;;0.10;99.90;;;;;;5059882;28;20956;-73
2023/02/27 08:36:31;;;;;;;21.57;19.73;;;0.20;99.90;;;;;;5063938;28;20466;-71
2023/02/27 08:38:57;;;;;;;23.63;21.40;;;0.30;99.90;;;;;;5052302;28;20512;-73
2023/02/27 08:41:24;;;;;;;21.43;19.73;;;0.40;99.90;;;;;;5046200;28;20487;-71
2023/02/27 08:43:51;;;;;;;23.20;21.07;;;0.50;99.90;;;;;;5052665;28;20983;-69
2023/02/27 08:46:17;;;;;;;23.40;21.23;;;0.60;99.90;;;;;;5056304;28;21019;-69
2023/02/27 08:48:45;;;;;;;23.03;21.03;;;0.80;99.90;;;;;;5059764;28;20469;-72
2023/02/27 08:51:13;;;;;;;26.83;21.93;;;0.80;99.90;;;;;;5059677;28;20462;-70
2023/02/27 08:53:40;;;;;;;21.90;20.20;;;0.90;99.90;;;;;;5058083;28;20494;-69
2023/02/27 08:56:07;;;;;;;22.80;21.00;;;0.90;99.90;;;;;;5048888;28;20893;-70
2023/02/27 08:58:35;;;;;;;22.90;21.10;;;0.90;99.90;;;;;;5059882;28;20510;-71
2023/02/27 09:01:02;;;;;;;22.47;20.50;;;1.00;99.90;;;;;;5056341;28;20558;-73
2023/02/27 09:03:30;;;;;;;26.40;22.73;;;1.00;99.90;;;;;;5057706;28;20462;-72
2023/02/27 09:05:57;;;;;;;22.83;20.93;;;1.10;99.90;;;;;;5052079;28;20499;-70
2023/02/27 09:08:25;;;;;;;22.33;20.43;;;1.20;99.90;;;;;;5056982;28;20463;-71
2023/02/27 09:10:56;;;;;;;23.00;20.60;;;1.20;99.90;;;;;;5057062;28;21003;-72
2023/02/27 09:13:22;;;;;;;21.20;19.80;;;1.30;99.90;;;;;;5055648;28;20483;-72
2023/02/27 09:15:49;;;;;;;21.90;20.30;;;1.40;99.90;;;;;;5053870;28;20460;-74
2023/02/27 09:18:16;;;;;;;22.33;20.57;;;1.50;99.90;;;;;;5054187;28;20818;-70
2023/02/27 09:20:43;;;;;;;21.10;19.60;;;1.60;99.90;;;;;;5052138;28;20938;-70
2023/02/27 09:23:10;;;;;;;21.87;20.23;;;1.60;99.90;;;;;;5051362;28;20538;-70
2023/02/27 09:25:38;;;;;;;21.03;19.60;;;1.60;99.90;;;;;;5058596;28;20460;-68
2023/02/27 09:28:05;;;;;;;20.93;19.57;;;1.80;99.90;;;;;;5057022;28;20464;-70
2023/02/27 09:30:33;;;;;;;20.03;18.33;;;1.90;99.90;;;;;;5045547;28;20963;-68
2023/02/27 09:33:00;;;;;;;21.50;19.90;;;1.90;99.90;;;;;;5058528;28;20482;-71
2023/02/27 09:35:27;;;;;;;19.50;18.30;;;2.00;99.90;;;;;;5055973;28;20979;-69
2023/02/27 09:37:54;;;;;;;20.77;19.37;;;2.10;99.90;;;;;;5058033;28;20458;-69
2023/02/27 09:40:24;;;;;;;20.53;19.13;;;2.00;99.90;;;;;;5057437;28;20459;-72
2023/02/27 09:42:56;;;;;;;20.10;18.90;;;2.10;99.90;;;;;;5053252;28;20497;-69
2023/02/27 09:45:26;;;;;;;20.30;19.00;;;2.30;99.90;;;;;;5063652;28;20944;-69
2023/02/27 09:47:56;;;;;;;20.20;18.70;;;2.40;99.90;;;;;;5058812;28;20537;-69
2023/02/27 09:50:36;;;;;;;20.27;19.00;;;2.40;99.90;;;;;;5053926;28;21315;-69
2023/02/27 09:53:04;;;;;;;21.17;19.50;;;2.40;99.90;;;;;;5057335;28;20945;-69
2023/02/27 09:55:34;;;;;;;20.13;18.93;;;2.40;99.90;;;;;;5049679;28;20482;-69
2023/02/27 09:58:07;;;;;;;20.30;18.70;;;2.60;99.90;;;;;;5048672;28;20476;-69
2023/02/27 10:00:48;;;;;;;20.07;18.77;;;2.80;99.90;;;;;;5052678;28;20809;-69
2023/02/27 10:03:30;;;;;;;19.73;18.27;;;2.90;99.90;;;;;;5057019;28;20513;-69
2023/02/27 10:06:14;;;;;;;26.00;19.43;;;3.00;99.90;;;;;;5057038;28;20810;-69
2023/02/27 10:08:51;;;;;;;20.10;18.80;;;3.00;99.90;;;;;;5059270;28;20465;-69
2023/02/27 10:11:26;;;;;;;20.00;18.80;;;3.20;99.90;;;;;;5063518;28;20858;-69
2023/02/27 10:14:03;;;;;;;20.47;18.90;;;3.20;99.90;;;;;;5057446;28;20483;-69
2023/02/27 10:16:32;;;;;;;20.50;19.10;;;3.10;99.90;;;;;;5056818;28;20462;-69
2023/02/27 10:19:03;;;;;;;19.73;18.53;;;3.30;99.90;;;;;;5057398;28;20554;-69
2023/02/27 10:21:34;;;;;;;19.97;18.57;;;3.30;99.90;;;;;;5055535;28;20881;-69
2023/02/27 10:24:08;;;;;;;19.63;18.43;;;3.80;99.90;;;;;;5058647;28;20464;-70
2023/02/27 10:26:39;;;;;;;21.17;19.57;;;4.20;99.90;;;;;;5057805;28;20463;-69
2023/02/27 10:29:17;;;;;;;20.23;18.87;;;4.60;99.90;;;;;;5054402;28;20984;-69
2023/02/27 10:31:46;;;;;;;20.17;18.60;;;4.70;99.90;;;;;;5053458;28;20562;-73
2023/02/27 10:34:15;;;;;;;20.10;18.90;;;5.30;99.90;;;;;;5061620;28;20543;-69
2023/02/27 10:36:43;;;;;;;20.90;19.53;;;5.90;99.90;;;;;;5054537;28;20543;-72
2023/02/27 10:39:15;;;;;;;19.80;18.50;;;6.10;99.90;;;;;;5060105;28;20461;-69
2023/02/27 10:41:44;;;;;;;20.67;19.43;;;6.40;99.90;;;;;;5056427;28;20478;-73
2023/02/27 10:44:14;;;;;;;20.00;18.70;;;6.70;99.90;;;;;;5052504;28;20459;-69
2023/02/27 10:46:41;;;;;;;20.30;19.20;;;6.80;99.90;;;;;;5056770;28;20474;-71
2023/02/27 10:49:15;;;;;;;20.67;19.37;;;7.20;99.90;;;;;;5050858;28;20464;-73
2023/02/27 10:51:43;;;;;;;19.83;18.60;;;7.30;99.90;;;;;;5055367;28;20454;-74
2023/02/27 10:54:28;;;;;;;19.17;17.97;;;7.70;99.90;;;;;;5053957;28;20526;-69
2023/02/27 10:56:56;;;;;;;19.87;18.47;;;7.90;99.90;;;;;;5054791;28;20471;-71
2023/02/27 10:59:27;;;;;;;19.10;18.00;;;8.20;99.90;;;;;;5053173;28;20474;-73
2023/02/27 11:01:55;;;;;;;19.07;17.93;;;8.60;99.90;;;;;;5057957;28;20496;-69
2023/02/27 11:04:29;;;;;;;19.20;18.10;;;8.50;99.90;;;;;;5059665;28;20476;-71
2023/02/27 11:06:57;;;;;;;20.53;19.00;;;8.50;99.90;;;;;;5056657;28;20528;-69
2023/02/27 11:09:26;;;;;;;19.80;18.43;;;7.60;99.40;;;;;;5056856;28;20553;-69
2023/02/27 11:11:53;;;;;;;19.80;18.20;;;7.30;99.90;;;;;;5050307;28;20460;-71
2023/02/27 11:14:33;;;;;;;19.23;18.00;;;7.20;99.90;;;;;;5062668;28;21004;-69
2023/02/27 11:17:02;;;;;;;21.10;19.33;;;7.70;99.90;;;;;;5067618;28;20454;-69
2023/02/27 11:19:34;;;;;;;20.60;19.50;;;7.80;99.90;;;;;;5060829;28;20463;-69
2023/02/27 11:22:05;;;;;;;20.80;19.20;;;8.10;99.50;;;;;;5057006;28;20474;-71
2023/02/27 11:24:32;;;;;;;19.73;18.53;;;8.60;99.70;;;;;;5054367;28;20467;-70
2023/02/27 11:27:02;;;;;;;19.87;18.67;;;9.10;97.10;;;;;;5059070;28;20470;-72
2023/02/27 11:29:31;;;;;;;19.53;18.33;;;9.10;97.50;;;;;;5056560;28;20553;-73
2023/02/27 11:32:02;;;;;;;20.67;18.90;;;9.50;97.00;;;;;;5057437;28;20938;-70
2023/02/27 11:34:32;;;;;;;20.20;19.10;;;10.10;96.30;;;;;;5053216;28;20499;-70
2023/02/27 11:37:01;;;;;;;21.07;19.60;;;10.70;94.40;;;;;;5055667;28;20820;-69
2023/02/27 11:39:35;;;;;;;20.13;19.03;;;10.30;92.00;;;;;;5053393;28;20817;-69
2023/02/27 11:42:16;;;;;;;19.73;18.73;;;10.40;92.10;;;;;;5056969;28;20483;-69
2023/02/27 11:44:56;;;;;;;21.10;19.73;;;9.60;92.10;;;;;;5051456;28;20492;-70
2023/02/27 11:47:27;;;;;;;20.27;19.17;;;8.30;93.80;;;;;;5058380;28;20493;-69
2023/02/27 11:50:25;;;;;;;22.87;20.87;;;8.30;94.30;;;;;;5058379;28;20866;-70
2023/02/27 11:52:57;;;;;;;21.17;19.57;;;8.30;95.10;;;;;;5063995;28;20474;-69
2023/02/27 11:55:26;;;;;;;22.13;20.50;;;8.00;95.60;;;;;;5057023;28;20467;-71
2023/02/27 11:57:58;;;;;;;19.83;18.67;;;8.10;95.20;;;;;;5057149;28;20554;-69
2023/02/27 12:00:31;;;;;;;20.27;19.17;;;8.10;96.20;;;;;;5053037;28;20787;-72
2023/02/27 12:03:03;;;;;;;19.90;18.70;;;8.20;95.30;;;;;;5052459;28;20459;-70
2023/02/27 12:05:35;;;;;;;19.80;18.80;;;7.40;95.10;;;;;;5059564;28;20464;-69
2023/02/27 12:08:05;;;;;;;21.07;19.67;;;7.30;96.60;;;;;;5062638;28;20459;-69
2023/02/27 12:10:39;;;;;;;20.47;19.27;;;6.90;95.90;;;;;;5062706;28;20512;-69
2023/02/27 12:13:13;;;;;;;20.40;19.20;;;7.20;97.50;;;;;;5055008;28;20506;-69
2023/02/27 12:15:47;;;;;;;19.63;18.53;;;7.60;95.50;;;;;;5057472;28;20807;-71
2023/02/27 12:18:19;;;;;;;21.17;19.97;;;7.60;95.70;;;;;;5053225;28;20473;-70
2023/02/27 12:20:52;;;;;;;20.20;19.00;;;7.90;95.30;;;;;;5059026;28;20468;-68
2023/02/27 12:23:26;;;;;;;19.97;18.83;;;7.70;95.20;;;;;;5059347;28;20466;-71
2023/02/27 12:25:56;;;;;;;19.60;18.60;;;8.00;94.80;;;;;;5058493;28;20455;-69
2023/02/27 12:28:43;;;;;;;19.70;18.70;;;7.60;95.20;;;;;;5058485;28;20710;-69
2023/02/27 12:31:37;;;;;;;20.03;18.87;;;7.00;95.30;;;;;;5063570;28;20466;-69
2023/02/27 12:34:14;;;;;;;19.57;18.37;;;7.20;96.70;;;;;;5052040;28;20483;-73
2023/02/27 12:36:40;;;;;;;20.10;18.90;;;7.50;94.70;;;;;;5058026;28;20470;-72
2023/02/27 12:39:17;;;;;;;20.57;19.03;;;7.70;95.10;;;;;;5057913;28;20463;-72
2023/02/27 12:42:10;;;;;;;20.07;18.97;;;8.10;94.30;;;;;;5058097;28;20521;-69
2023/02/27 12:44:50;;;;;;;20.27;18.97;;;8.90;94.40;;;;;;5058784;28;20468;-69
2023/02/27 12:47:29;;;;;;;20.50;19.30;;;9.30;93.30;;;;;;5058815;28;20810;-68
2023/02/27 12:50:02;;;;;;;20.40;18.90;;;9.90;92.20;;;;;;5048319;28;20473;-70
2023/02/27 12:52:39;;;;;;;21.00;19.57;;;10.30;91.50;;;;;;5062549;28;20459;-70